createdAt,value
2023-02-11T00:00:17.951Z,25.10
2023-02-11T00:01:34.440Z,25.80
2023-02-11T00:02:37.252Z,23.58
2023-02-11T00:03:40.080Z,22.98
2023-02-11T00:04:42.764Z,23.08
2023-02-11T00:05:45.554Z,22.20
2023-02-11T00:06:48.547Z,21.33
2023-02-11T00:07:51.528Z,22.30
2023-02-11T00:08:55.312Z,22.52
2023-02-11T00:09:58.026Z,21.52
2023-02-11T00:11:00.772Z,22.05
2023-02-11T00:12:03.962Z,23.02
2023-02-11T00:13:06.664Z,22.60
2023-02-11T00:14:11.723Z,21.27
2023-02-11T00:15:14.433Z,21.83
2023-02-11T00:16:19.953Z,21.83
2023-02-11T00:17:23.079Z,25.05
2023-02-11T00:18:26.499Z,24.27
2023-02-11T00:19:29.276Z,24.73
2023-02-11T00:20:31.948Z,25.00
2023-02-11T00:21:36.105Z,24.73
2023-02-11T00:22:39.069Z,24.05
2023-02-11T00:23:42.316Z,23.87
2023-02-11T00:24:45.230Z,21.73
2023-02-11T00:25:47.961Z,23.12
2023-02-11T00:26:50.827Z,21.90
2023-02-11T00:27:53.904Z,23.12
2023-02-11T00:28:57.308Z,22.77
2023-02-11T00:30:02.311Z,23.60
2023-02-11T00:31:06.300Z,24.80
2023-02-11T00:32:10.555Z,25.02
2023-02-11T00:33:13.517Z,24.40
2023-02-11T00:34:16.430Z,23.17
2023-02-11T00:35:19.122Z,24.08
2023-02-11T00:36:26.796Z,23.75
2023-02-11T00:37:29.871Z,22.05
2023-02-11T00:38:32.955Z,23.00
2023-02-11T00:39:37.169Z,24.33
2023-02-11T00:40:39.863Z,24.60
2023-02-11T00:41:42.526Z,25.45
2023-02-11T00:42:45.254Z,24.08
2023-02-11T00:43:49.844Z,25.98
2023-02-11T00:44:53.470Z,24.30
2023-02-11T00:45:56.339Z,23.80
2023-02-11T00:46:59.626Z,23.87
2023-02-11T00:48:02.433Z,24.80
2023-02-11T00:49:06.022Z,24.63
2023-02-11T00:50:09.007Z,24.40
2023-02-11T00:51:12.062Z,24.80
2023-02-11T00:52:14.815Z,25.20
2023-02-11T00:53:18.390Z,25.00
2023-02-11T00:54:21.479Z,26.15
2023-02-11T00:55:24.202Z,25.45
2023-02-11T00:56:27.084Z,24.63
2023-02-11T00:57:31.853Z,23.60
2023-02-11T00:58:35.221Z,25.27
2023-02-11T00:59:38.898Z,23.58
2023-02-11T01:00:41.722Z,23.90
2023-02-11T01:01:44.642Z,25.90
2023-02-11T01:02:47.500Z,24.70
2023-02-11T01:03:50.361Z,25.35
2023-02-11T01:04:54.267Z,25.15
2023-02-11T01:05:57.038Z,24.60
2023-02-11T01:06:59.935Z,25.52
2023-02-11T01:08:03.082Z,25.30
2023-02-11T01:09:06.069Z,26.60
2023-02-11T01:10:10.986Z,26.37
2023-02-11T01:11:17.794Z,27.07
2023-02-11T01:12:21.138Z,26.58
2023-02-11T01:13:24.852Z,25.80
2023-02-11T01:14:29.704Z,26.62
2023-02-11T01:15:33.256Z,24.50
2023-02-11T01:16:36.422Z,25.27
2023-02-11T01:17:39.122Z,24.50
2023-02-11T01:18:44.411Z,25.52
2023-02-11T01:19:47.663Z,23.77
2023-02-11T01:20:53.987Z,25.73
2023-02-11T01:21:56.678Z,22.80
2023-02-11T01:22:59.463Z,24.58
2023-02-11T01:24:02.657Z,24.90
2023-02-11T01:25:06.795Z,24.87
2023-02-11T01:26:11.601Z,24.15
2023-02-11T01:27:14.520Z,23.87
2023-02-11T01:28:20.112Z,24.83
2023-02-11T01:29:22.961Z,24.20
2023-02-11T01:30:25.652Z,26.87
2023-02-11T01:31:30.254Z,23.85
2023-02-11T01:32:33.756Z,23.80
2023-02-11T01:33:36.483Z,25.15
2023-02-11T01:34:41.608Z,24.25
2023-02-11T01:35:44.784Z,22.80
2023-02-11T01:36:47.842Z,24.85
2023-02-11T01:37:50.858Z,22.20
2023-02-11T01:38:54.194Z,22.23
2023-02-11T01:39:57.134Z,22.98
2023-02-11T01:41:06.241Z,22.52
2023-02-11T01:42:16.825Z,22.83
2023-02-11T01:43:20.211Z,23.00
2023-02-11T01:44:35.924Z,23.92
2023-02-11T01:45:44.678Z,22.92
2023-02-11T01:46:47.638Z,24.83
2023-02-11T01:47:51.414Z,22.67
2023-02-11T01:49:12.868Z,23.85
2023-02-11T01:50:16.122Z,20.58
2023-02-11T01:51:22.318Z,21.08
2023-02-11T01:52:39.373Z,21.92
2023-02-11T01:54:03.380Z,22.92
2023-02-11T01:55:29.469Z,21.03
2023-02-11T01:56:52.168Z,21.85
2023-02-11T01:57:59.269Z,21.00
2023-02-11T01:59:11.574Z,23.10
2023-02-11T02:00:24.348Z,22.48
2023-02-11T02:01:30.412Z,23.48
2023-02-11T02:02:43.934Z,22.00
2023-02-11T02:03:51.938Z,23.12
2023-02-11T02:05:02.751Z,21.40
2023-02-11T02:06:17.143Z,22.50
2023-02-11T02:07:36.833Z,19.97
2023-02-11T02:08:55.601Z,20.92
2023-02-11T02:10:06.081Z,21.55
2023-02-11T02:11:09.117Z,21.33
2023-02-11T02:12:12.968Z,23.02
2023-02-11T02:13:16.122Z,23.77
2023-02-11T02:14:19.311Z,22.55
2023-02-11T02:15:31.845Z,21.87
2023-02-11T02:16:36.891Z,22.17
2023-02-11T02:17:52.624Z,22.73
2023-02-11T02:19:36.561Z,21.30
2023-02-11T02:21:06.026Z,20.08
2023-02-11T02:22:57.197Z,20.83
2023-02-11T02:24:08.859Z,19.08
2023-02-11T02:25:33.408Z,20.67
2023-02-11T02:27:10.161Z,22.62
2023-02-11T02:28:18.820Z,20.98
2023-02-11T02:29:42.073Z,21.70
2023-02-11T02:31:06.732Z,20.58
2023-02-11T02:32:37.876Z,20.35
2023-02-11T02:33:40.708Z,20.87
2023-02-11T02:35:07.619Z,21.20
2023-02-11T02:36:16.048Z,20.88
2023-02-11T02:37:31.479Z,20.48
2023-02-11T02:38:49.519Z,21.98
2023-02-11T02:39:52.216Z,24.00
2023-02-11T02:40:59.068Z,23.25
2023-02-11T02:42:03.187Z,23.77
2023-02-11T02:43:09.995Z,22.30
2023-02-11T02:44:13.138Z,23.17
2023-02-11T02:45:15.964Z,21.87
2023-02-11T02:46:22.290Z,25.58
2023-02-11T02:47:25.283Z,23.58
2023-02-11T02:48:30.174Z,24.42
2023-02-11T02:49:33.232Z,27.02
2023-02-11T02:50:38.088Z,27.73
2023-02-11T02:52:18.141Z,27.15
2023-02-11T02:53:49.138Z,25.10
2023-02-11T02:54:57.718Z,22.73
2023-02-11T02:56:23.578Z,22.48
2023-02-11T02:57:29.526Z,23.43
2023-02-11T02:58:48.369Z,22.08
2023-02-11T03:00:02.962Z,23.40
2023-02-11T03:01:27.607Z,21.45
2023-02-11T03:02:56.925Z,20.92
2023-02-11T03:04:31.880Z,21.73
2023-02-11T03:05:43.769Z,20.67
2023-02-11T03:06:57.843Z,21.98
2023-02-11T03:08:00.791Z,20.77
2023-02-11T03:09:12.933Z,21.50
2023-02-11T03:10:33.358Z,20.57
2023-02-11T03:11:37.814Z,20.52
2023-02-11T03:12:43.245Z,20.12
2023-02-11T03:13:48.639Z,22.33
2023-02-11T03:14:52.273Z,21.92
2023-02-11T03:15:58.770Z,26.27
2023-02-11T03:17:04.829Z,30.92
2023-02-11T03:18:11.963Z,30.20
2023-02-11T03:19:26.619Z,27.75
2023-02-11T03:20:33.246Z,31.10
2023-02-11T03:21:38.962Z,27.23
2023-02-11T03:22:53.008Z,25.73
2023-02-11T03:24:06.027Z,27.13
2023-02-11T03:25:09.712Z,26.42
2023-02-11T03:26:34.560Z,25.50
2023-02-11T03:28:16.327Z,22.60
2023-02-11T03:29:32.336Z,21.05
2023-02-11T03:31:21.848Z,21.05
2023-02-11T03:32:46.133Z,23.95
2023-02-11T03:33:58.107Z,23.92
2023-02-11T03:35:12.350Z,21.90
2023-02-11T03:36:21.950Z,24.20
2023-02-11T03:37:28.622Z,21.90
2023-02-11T03:38:36.409Z,22.83
2023-02-11T03:39:50.880Z,21.65
2023-02-11T03:40:55.737Z,21.77
2023-02-11T03:42:00.869Z,24.17
2023-02-11T03:43:13.986Z,20.80
2023-02-11T03:44:17.508Z,22.10
2023-02-11T03:45:23.012Z,24.00
2023-02-11T03:46:37.408Z,22.30
2023-02-11T03:47:45.754Z,22.75
2023-02-11T03:48:52.650Z,22.17
2023-02-11T03:49:58.123Z,22.42
2023-02-11T03:51:05.619Z,22.48
2023-02-11T03:52:11.389Z,22.62
2023-02-11T03:53:15.348Z,20.80
2023-02-11T03:54:24.377Z,22.20
2023-02-11T03:55:29.461Z,22.58
2023-02-11T03:56:39.720Z,22.33
2023-02-11T03:57:42.855Z,22.17
2023-02-11T03:58:46.151Z,22.23
2023-02-11T03:59:57.115Z,23.17
2023-02-11T04:01:02.508Z,24.33
2023-02-11T04:02:05.585Z,24.77
2023-02-11T04:03:10.603Z,30.15
2023-02-11T04:04:13.892Z,28.40
2023-02-11T04:05:16.868Z,41.33
2023-02-11T04:06:19.644Z,43.17
2023-02-11T04:07:22.711Z,32.33
2023-02-11T04:08:25.414Z,27.17
2023-02-11T04:09:28.088Z,23.90
2023-02-11T04:10:31.347Z,22.85
2023-02-11T04:11:33.999Z,23.00
2023-02-11T04:12:37.069Z,23.52
2023-02-11T04:13:39.787Z,22.50
2023-02-11T04:14:42.549Z,23.38
2023-02-11T04:15:47.816Z,22.98
2023-02-11T04:16:51.405Z,24.85
2023-02-11T04:17:54.671Z,26.30
2023-02-11T04:18:58.214Z,29.23
2023-02-11T04:20:01.125Z,31.55
2023-02-11T04:21:03.965Z,30.17
2023-02-11T04:22:06.950Z,29.30
2023-02-11T04:23:10.348Z,30.25
2023-02-11T04:24:13.097Z,28.12
2023-02-11T04:25:15.827Z,25.95
2023-02-11T04:26:18.522Z,24.58
2023-02-11T04:27:21.240Z,22.90
2023-02-11T04:28:24.567Z,24.42
2023-02-11T04:29:28.316Z,22.73
2023-02-11T04:30:31.113Z,23.42
2023-02-11T04:31:33.809Z,23.75
2023-02-11T04:32:36.536Z,22.73
2023-02-11T04:33:39.584Z,23.50
2023-02-11T04:34:42.315Z,23.90
2023-02-11T04:35:45.384Z,22.95
2023-02-11T04:36:48.131Z,23.40
2023-02-11T04:37:50.939Z,23.00
2023-02-11T04:38:53.886Z,27.83
2023-02-11T04:39:56.571Z,26.33
2023-02-11T04:41:00.617Z,28.75
2023-02-11T04:42:03.554Z,31.52
2023-02-11T04:43:06.720Z,29.23
2023-02-11T04:44:09.719Z,28.42
2023-02-11T04:45:12.687Z,31.17
2023-02-11T04:46:15.466Z,34.70
2023-02-11T04:47:18.445Z,32.05
2023-02-11T04:48:24.976Z,28.45
2023-02-11T04:49:28.048Z,25.52
2023-02-11T04:50:30.852Z,23.50
2023-02-11T04:51:33.599Z,24.12
2023-02-11T04:52:36.288Z,23.77
2023-02-11T04:53:39.016Z,25.02
2023-02-11T04:54:41.990Z,23.12
2023-02-11T04:55:44.712Z,23.00
2023-02-11T04:56:47.695Z,24.15
2023-02-11T04:57:50.414Z,23.70
2023-02-11T04:58:53.186Z,24.98
2023-02-11T04:59:56.443Z,24.98
2023-02-11T05:01:09.721Z,22.57
2023-02-11T05:02:12.468Z,22.67
2023-02-11T05:03:15.407Z,26.12
2023-02-11T05:04:18.355Z,41.17
2023-02-11T05:05:21.465Z,48.85
2023-02-11T05:06:24.538Z,57.50
2023-02-11T05:07:28.363Z,49.35
2023-02-11T05:08:31.458Z,37.70
2023-02-11T05:09:34.210Z,31.10
2023-02-11T05:10:37.611Z,29.52
2023-02-11T05:11:40.327Z,27.37
2023-02-11T05:12:43.044Z,27.42
2023-02-11T05:13:46.464Z,25.35
2023-02-11T05:14:49.107Z,26.45
2023-02-11T05:15:52.458Z,27.85
2023-02-11T05:16:55.348Z,26.80
2023-02-11T05:17:58.111Z,26.42
2023-02-11T05:19:00.905Z,27.02
2023-02-11T05:20:03.828Z,27.33
2023-02-11T05:21:09.208Z,28.45
2023-02-11T05:22:11.864Z,25.67
2023-02-11T05:23:14.624Z,26.33
2023-02-11T05:24:17.293Z,27.17
2023-02-11T05:25:20.809Z,26.33
2023-02-11T05:26:23.832Z,25.65
2023-02-11T05:27:26.556Z,27.42
2023-02-11T05:28:29.509Z,25.40
2023-02-11T05:29:32.324Z,28.30
2023-02-11T05:30:35.306Z,26.62
2023-02-11T05:31:38.416Z,26.08
2023-02-11T05:32:41.162Z,49.03
2023-02-11T05:33:44.858Z,44.20
2023-02-11T05:34:47.563Z,29.87
2023-02-11T05:35:51.112Z,26.05
2023-02-11T05:36:54.397Z,23.95
2023-02-11T05:37:57.188Z,24.63
2023-02-11T05:38:59.921Z,26.85
2023-02-11T05:40:02.639Z,27.58
2023-02-11T05:41:06.675Z,29.85
2023-02-11T05:42:09.912Z,27.17
2023-02-11T05:43:12.704Z,26.47
2023-02-11T05:44:15.429Z,28.67
2023-02-11T05:45:18.286Z,29.50
2023-02-11T05:46:21.328Z,39.67
2023-02-11T05:47:24.386Z,36.50
2023-02-11T05:48:27.228Z,43.47
2023-02-11T05:49:30.130Z,32.85
2023-02-11T05:50:33.155Z,29.60
2023-02-11T05:51:35.941Z,28.90
2023-02-11T05:52:38.914Z,34.92
2023-02-11T05:53:42.294Z,38.73
2023-02-11T05:54:45.109Z,35.92
2023-02-11T05:55:48.072Z,29.85
2023-02-11T05:56:50.957Z,29.25
2023-02-11T05:57:54.299Z,32.28
2023-02-11T05:58:59.578Z,42.78
2023-02-11T06:00:03.502Z,54.53
2023-02-11T06:01:14.939Z,76.97
2023-02-11T06:02:18.022Z,92.93
2023-02-11T06:03:21.106Z,95.00
2023-02-11T06:04:23.974Z,60.70
2023-02-11T06:05:26.881Z,68.32
2023-02-11T06:06:29.572Z,57.67
2023-02-11T06:07:32.879Z,39.10
2023-02-11T06:08:38.131Z,29.17
2023-02-11T06:09:41.834Z,27.87
2023-02-11T06:10:45.746Z,27.08
2023-02-11T06:11:51.035Z,26.50
2023-02-11T06:12:54.067Z,25.92
2023-02-11T06:13:56.824Z,28.20
2023-02-11T06:14:59.751Z,28.80
2023-02-11T06:16:03.338Z,31.48
2023-02-11T06:17:06.212Z,30.42
2023-02-11T06:18:09.758Z,30.48
2023-02-11T06:19:12.984Z,31.60
2023-02-11T06:20:16.193Z,33.55
2023-02-11T06:21:18.972Z,37.85
2023-02-11T06:22:21.706Z,39.72
2023-02-11T06:23:24.710Z,39.15
2023-02-11T06:24:48.159Z,38.40
2023-02-11T06:25:51.053Z,33.30
2023-02-11T06:26:53.934Z,30.75
2023-02-11T06:27:57.118Z,30.67
2023-02-11T06:29:01.121Z,36.58
2023-02-11T06:30:05.631Z,35.35
2023-02-11T06:31:09.842Z,35.15
2023-02-11T06:32:33.572Z,37.58
2023-02-11T06:33:36.151Z,38.40
2023-02-11T06:34:39.419Z,36.50
2023-02-11T06:35:42.124Z,37.45
2023-02-11T06:36:45.387Z,35.63
2023-02-11T06:37:49.726Z,34.75
2023-02-11T06:38:52.673Z,33.53
2023-02-11T06:39:55.672Z,31.08
2023-02-11T06:40:58.352Z,30.08
2023-02-11T06:42:01.131Z,30.42
2023-02-11T06:43:03.814Z,29.58
2023-02-11T06:44:07.083Z,32.55
2023-02-11T06:45:11.123Z,29.42
2023-02-11T06:46:14.202Z,26.83
2023-02-11T06:47:17.009Z,27.33
2023-02-11T06:48:20.245Z,28.05
2023-02-11T06:49:22.995Z,67.12
2023-02-11T06:50:26.098Z,91.37
2023-02-11T06:51:29.339Z,42.00
2023-02-11T06:52:32.704Z,34.42
2023-02-11T06:53:37.544Z,35.20
2023-02-11T06:54:40.230Z,33.03
2023-02-11T06:55:43.297Z,30.80
2023-02-11T06:56:45.988Z,31.33
2023-02-11T06:57:48.734Z,23.63
2023-02-11T06:58:58.069Z,30.85
2023-02-11T07:00:00.787Z,49.20
2023-02-11T07:01:09.634Z,45.95
2023-02-11T07:02:12.658Z,46.50
2023-02-11T07:03:15.482Z,70.70
2023-02-11T07:04:19.478Z,39.55
2023-02-11T07:05:22.152Z,56.65
2023-02-11T07:06:28.099Z,36.10
2023-02-11T07:07:34.091Z,60.40
2023-02-11T07:08:38.139Z,55.80
2023-02-11T07:09:41.137Z,55.03
2023-02-11T07:10:43.915Z,29.48
2023-02-11T07:11:47.194Z,35.72
2023-02-11T07:12:49.933Z,36.03
2023-02-11T07:13:54.897Z,34.83
2023-02-11T07:14:57.886Z,25.92
2023-02-11T07:16:05.696Z,46.83
2023-02-11T07:17:08.729Z,42.83
2023-02-11T07:18:14.325Z,47.42
2023-02-11T07:19:17.610Z,28.40
2023-02-11T07:20:20.526Z,37.47
2023-02-11T07:21:24.422Z,26.83
2023-02-11T07:22:27.620Z,29.33
2023-02-11T07:23:30.742Z,35.80
2023-02-11T07:24:33.475Z,30.33
2023-02-11T07:25:36.688Z,32.58
2023-02-11T07:26:40.314Z,27.17
2023-02-11T07:27:43.994Z,28.05
2023-02-11T07:28:46.862Z,27.58
2023-02-11T07:29:49.605Z,28.97
2023-02-11T07:30:52.345Z,27.30
2023-02-11T07:31:55.146Z,27.90
2023-02-11T07:32:58.195Z,30.23
2023-02-11T07:34:02.148Z,30.05
2023-02-11T07:35:07.931Z,32.55
2023-02-11T07:36:11.526Z,27.95
2023-02-11T07:37:14.446Z,30.85
2023-02-11T07:38:17.435Z,28.75
2023-02-11T07:39:21.970Z,29.70
2023-02-11T07:40:24.985Z,25.67
2023-02-11T07:41:28.382Z,26.83
2023-02-11T07:42:31.120Z,27.05
2023-02-11T07:43:35.478Z,29.95
2023-02-11T07:44:38.160Z,27.83
2023-02-11T07:45:43.582Z,28.30
2023-02-11T07:46:47.934Z,27.27
2023-02-11T07:47:53.498Z,27.50
2023-02-11T07:48:56.686Z,27.42
2023-02-11T07:49:59.330Z,27.83
2023-02-11T07:51:29.564Z,26.33
2023-02-11T07:52:32.537Z,27.73
2023-02-11T07:53:35.594Z,27.35
2023-02-11T07:54:39.176Z,28.85
2023-02-11T07:55:43.110Z,28.08
2023-02-11T07:56:46.149Z,27.17
2023-02-11T07:57:49.173Z,29.27
2023-02-11T07:58:52.059Z,25.55
2023-02-11T07:59:55.053Z,28.25
2023-02-11T08:01:05.976Z,29.95
2023-02-11T08:02:09.661Z,27.23
2023-02-11T08:03:12.706Z,27.92
2023-02-11T08:04:15.495Z,28.40
2023-02-11T08:05:18.492Z,31.17
2023-02-11T08:06:23.840Z,30.27
2023-02-11T08:07:29.328Z,29.20
2023-02-11T08:08:32.191Z,30.27
2023-02-11T08:09:34.883Z,29.23
2023-02-11T08:10:37.547Z,29.12
2023-02-11T08:11:40.977Z,29.77
2023-02-11T08:12:44.576Z,29.13
2023-02-11T08:13:47.987Z,30.75
2023-02-11T08:14:51.380Z,29.85
2023-02-11T08:15:57.794Z,30.30
2023-02-11T08:17:00.591Z,30.67
2023-02-11T08:18:03.737Z,28.85
2023-02-11T08:19:15.080Z,27.75
2023-02-11T08:20:17.902Z,30.27
2023-02-11T08:21:21.372Z,29.35
2023-02-11T08:22:24.179Z,27.92
2023-02-11T08:23:27.152Z,29.63
2023-02-11T08:24:29.917Z,28.62
2023-02-11T08:25:33.166Z,29.33
2023-02-11T08:26:36.189Z,29.83
2023-02-11T08:27:38.953Z,30.73
2023-02-11T08:28:44.822Z,29.55
2023-02-11T08:29:47.726Z,29.80
2023-02-11T08:30:50.883Z,30.05
2023-02-11T08:31:53.899Z,29.87
2023-02-11T08:32:56.811Z,29.50
2023-02-11T08:34:02.330Z,29.30
2023-02-11T08:35:08.750Z,28.90
2023-02-11T08:36:14.382Z,30.83
2023-02-11T08:37:17.819Z,33.67
2023-02-11T08:38:20.567Z,32.03
2023-02-11T08:39:23.653Z,33.38
2023-02-11T08:40:26.645Z,31.98
2023-02-11T08:41:29.707Z,31.58
2023-02-11T08:42:32.327Z,32.70
2023-02-11T08:43:35.744Z,33.92
2023-02-11T08:44:38.821Z,33.20
2023-02-11T08:45:41.608Z,31.42
2023-02-11T08:46:44.382Z,31.70
2023-02-11T08:47:47.061Z,33.20
2023-02-11T08:48:50.624Z,35.95
2023-02-11T08:49:53.661Z,36.17
2023-02-11T08:50:56.735Z,32.42
2023-02-11T08:52:03.829Z,34.05
2023-02-11T08:53:06.741Z,30.40
2023-02-11T08:54:09.875Z,34.33
2023-02-11T08:55:12.863Z,31.13
2023-02-11T08:56:16.947Z,35.13
2023-02-11T08:57:19.752Z,36.10
2023-02-11T08:58:22.620Z,33.38
2023-02-11T08:59:25.492Z,29.87
2023-02-11T09:00:28.570Z,34.65
2023-02-11T09:01:32.090Z,31.15
2023-02-11T09:02:35.088Z,37.67
2023-02-11T09:03:38.039Z,28.30
2023-02-11T09:04:41.172Z,29.80
2023-02-11T09:05:45.848Z,25.63
2023-02-11T09:06:49.134Z,32.78
2023-02-11T09:07:51.927Z,32.33
2023-02-11T09:08:56.847Z,31.73
2023-02-11T09:09:59.556Z,30.77
2023-02-11T09:11:03.854Z,33.03
2023-02-11T09:12:06.669Z,33.83
2023-02-11T09:13:09.966Z,30.65
2023-02-11T09:14:21.400Z,32.47
2023-02-11T09:15:24.154Z,30.12
2023-02-11T09:16:30.865Z,30.50
2023-02-11T09:17:33.640Z,29.50
2023-02-11T09:18:36.405Z,30.90
2023-02-11T09:19:39.104Z,32.72
2023-02-11T09:20:41.974Z,32.45
2023-02-11T09:21:45.177Z,30.62
2023-02-11T09:22:48.326Z,69.65
2023-02-11T09:23:51.376Z,35.50
2023-02-11T09:24:55.141Z,99.30
2023-02-11T09:25:57.804Z,34.92
2023-02-11T09:27:00.926Z,32.67
2023-02-11T09:28:03.818Z,42.05
2023-02-11T09:29:06.583Z,35.80
2023-02-11T09:30:10.211Z,31.42
2023-02-11T09:31:16.192Z,32.65
2023-02-11T09:32:19.246Z,33.38
2023-02-11T09:33:22.052Z,34.47
2023-02-11T09:34:24.875Z,32.50
2023-02-11T09:35:27.811Z,31.77
2023-02-11T09:36:33.555Z,32.22
2023-02-11T09:37:37.495Z,31.70
2023-02-11T09:38:40.866Z,30.75
2023-02-11T09:39:46.241Z,29.55
2023-02-11T09:40:49.359Z,32.35
2023-02-11T09:42:24.821Z,33.28
2023-02-11T09:43:36.856Z,31.73
2023-02-11T09:44:40.042Z,32.97
2023-02-11T09:45:43.147Z,33.28
2023-02-11T09:46:53.335Z,37.88
2023-02-11T09:48:00.859Z,56.90
2023-02-11T09:49:05.151Z,50.27
2023-02-11T09:50:23.140Z,45.85
2023-02-11T09:51:47.405Z,31.80
2023-02-11T09:53:02.265Z,31.20
2023-02-11T09:54:15.607Z,31.85
2023-02-11T09:55:23.252Z,29.73
2023-02-11T09:56:28.370Z,30.58
2023-02-11T09:57:35.947Z,32.30
2023-02-11T09:58:41.213Z,37.83
2023-02-11T09:59:44.970Z,32.75
2023-02-11T10:01:11.621Z,32.13
2023-02-11T10:02:27.774Z,30.60
2023-02-11T10:03:48.836Z,31.33
2023-02-11T10:05:10.093Z,31.35
2023-02-11T10:06:29.310Z,32.58
2023-02-11T10:07:41.576Z,31.37
2023-02-11T10:09:09.658Z,30.62
2023-02-11T10:10:39.480Z,31.83
2023-02-11T10:11:42.304Z,29.83
2023-02-11T10:13:03.811Z,32.10
2023-02-11T10:14:24.390Z,30.13
2023-02-11T10:15:50.574Z,31.42
2023-02-11T10:17:18.059Z,30.42
2023-02-11T10:18:42.891Z,30.80
2023-02-11T10:20:01.036Z,32.15
2023-02-11T10:21:20.703Z,32.85
2023-02-11T10:22:31.060Z,26.80
2023-02-11T10:23:38.290Z,33.25
2023-02-11T10:24:42.876Z,32.10
2023-02-11T10:25:50.809Z,28.62
2023-02-11T10:26:53.774Z,32.17
2023-02-11T10:27:59.991Z,33.40
2023-02-11T10:29:31.813Z,33.75
2023-02-11T10:30:41.071Z,32.67
2023-02-11T10:31:46.879Z,33.20
2023-02-11T10:33:07.752Z,36.05
2023-02-11T10:34:13.005Z,27.45
2023-02-11T10:35:18.435Z,34.97
2023-02-11T10:36:24.188Z,30.08
2023-02-11T10:37:27.038Z,35.08
2023-02-11T10:38:30.004Z,34.20
2023-02-11T10:39:33.165Z,32.70
2023-02-11T10:40:35.961Z,34.22
2023-02-11T10:42:02.689Z,32.72
2023-02-11T10:43:10.144Z,33.50
2023-02-11T10:44:28.772Z,31.95
2023-02-11T10:45:38.560Z,29.08
2023-02-11T10:46:42.488Z,31.10
2023-02-11T10:47:45.264Z,31.67
2023-02-11T10:48:52.463Z,31.42
2023-02-11T10:49:55.175Z,31.90
2023-02-11T10:51:14.725Z,33.75
2023-02-11T10:52:26.286Z,30.20
2023-02-11T10:53:29.021Z,31.50
2023-02-11T10:54:31.701Z,29.42
2023-02-11T10:55:36.539Z,31.58
2023-02-11T10:56:46.704Z,32.17
2023-02-11T10:57:54.614Z,38.50
2023-02-11T10:59:18.575Z,41.88
2023-02-11T11:00:39.383Z,28.58
2023-02-11T11:01:54.320Z,29.00
2023-02-11T11:03:00.923Z,29.48
2023-02-11T11:04:04.270Z,30.62
2023-02-11T11:05:20.078Z,43.38
2023-02-11T11:06:34.533Z,50.30
2023-02-11T11:07:37.812Z,50.45
2023-02-11T11:08:49.325Z,31.95
2023-02-11T11:09:59.744Z,29.87
2023-02-11T11:11:05.987Z,35.65
2023-02-11T11:12:50.485Z,40.22
2023-02-11T11:13:53.502Z,30.50
2023-02-11T11:15:18.840Z,31.98
2023-02-11T11:16:26.189Z,31.30
2023-02-11T11:17:29.424Z,32.22
2023-02-11T11:18:32.195Z,33.63
2023-02-11T11:19:36.851Z,28.35
2023-02-11T11:20:45.127Z,34.00
2023-02-11T11:21:50.941Z,37.92
2023-02-11T11:23:16.534Z,33.75
2023-02-11T11:24:44.423Z,29.92
2023-02-11T11:26:00.191Z,31.10
2023-02-11T11:27:05.329Z,31.23
2023-02-11T11:28:26.694Z,31.98
2023-02-11T11:29:38.401Z,28.45
2023-02-11T11:30:43.421Z,31.75
2023-02-11T11:31:54.941Z,31.80
2023-02-11T11:32:59.007Z,30.20
2023-02-11T11:34:32.501Z,31.50
2023-02-11T11:35:35.453Z,28.48
2023-02-11T11:36:46.104Z,28.58
2023-02-11T11:38:02.271Z,30.57
2023-02-11T11:39:21.968Z,30.37
2023-02-11T11:40:36.830Z,31.35
2023-02-11T11:41:50.262Z,32.53
2023-02-11T11:43:12.598Z,33.08
2023-02-11T11:44:31.041Z,31.87
2023-02-11T11:45:33.910Z,31.90
2023-02-11T11:46:41.316Z,33.88
2023-02-11T11:47:56.268Z,35.15
2023-02-11T11:49:11.768Z,29.75
2023-02-11T11:50:21.249Z,29.87
2023-02-11T11:51:24.847Z,30.80
2023-02-11T11:52:38.524Z,33.83
2023-02-11T11:53:44.525Z,34.45
2023-02-11T11:54:59.055Z,35.60
2023-02-11T11:56:22.303Z,26.52
2023-02-11T11:57:28.791Z,31.17
2023-02-11T11:58:32.855Z,30.20
2023-02-11T11:59:41.712Z,23.67
2023-02-11T12:01:02.040Z,31.95
2023-02-11T12:02:16.561Z,34.23
2023-02-11T12:03:34.443Z,30.17
2023-02-11T12:04:58.904Z,30.05
2023-02-11T12:06:07.201Z,28.70
2023-02-11T12:07:31.000Z,31.42
2023-02-11T12:08:49.605Z,30.48
2023-02-11T12:10:14.098Z,33.17
2023-02-11T12:11:35.263Z,33.08
2023-02-11T12:13:23.698Z,30.23
2023-02-11T12:14:47.314Z,30.33
2023-02-11T12:16:20.913Z,22.83
2023-02-11T12:17:43.687Z,33.90
2023-02-11T12:19:00.539Z,32.45
2023-02-11T12:20:23.786Z,31.45
2023-02-11T12:21:38.300Z,29.77
2023-02-11T12:23:15.965Z,28.83
2023-02-11T12:26:32.764Z,28.98
2023-02-11T12:27:54.901Z,29.65
2023-02-11T12:28:58.080Z,27.50
2023-02-11T12:30:20.651Z,31.20
2023-02-11T12:31:47.311Z,27.35
2023-02-11T12:33:22.689Z,26.40
2023-02-11T12:34:29.812Z,30.30
2023-02-11T12:35:40.550Z,36.42
2023-02-11T12:36:54.885Z,32.17
2023-02-11T12:38:19.040Z,37.90
2023-02-11T12:39:34.184Z,27.30
2023-02-11T12:40:49.672Z,31.55
2023-02-11T12:42:14.785Z,28.20
2023-02-11T12:43:20.599Z,27.97
2023-02-11T12:45:12.665Z,28.90
2023-02-11T12:46:46.481Z,33.20
2023-02-11T12:48:23.108Z,29.75
2023-02-11T12:49:54.388Z,31.95
2023-02-11T12:51:37.755Z,30.73
2023-02-11T12:53:29.760Z,28.05
2023-02-11T12:57:28.832Z,28.42
2023-02-11T12:58:45.022Z,25.02
2023-02-11T13:00:04.505Z,25.00
2023-02-11T13:03:00.989Z,25.77
2023-02-11T13:04:24.812Z,24.30
2023-02-11T13:05:37.765Z,28.15
2023-02-11T13:07:26.264Z,26.58
2023-02-11T13:11:26.026Z,27.33
2023-02-11T13:12:50.020Z,26.80
2023-02-11T13:13:55.978Z,31.85
2023-02-11T13:15:06.361Z,28.67
2023-02-11T13:20:43.745Z,31.15
2023-02-11T13:22:02.682Z,29.92
2023-02-11T13:23:19.027Z,29.30
2023-02-11T13:24:33.734Z,27.10
2023-02-11T13:30:09.626Z,24.30
2023-02-11T13:31:16.940Z,27.13
2023-02-11T13:32:19.922Z,26.53
2023-02-11T13:35:41.307Z,24.12
2023-02-11T13:36:55.564Z,31.73
2023-02-11T13:38:00.534Z,29.60
2023-02-11T13:39:06.861Z,27.48
2023-02-11T13:40:19.356Z,34.35
2023-02-11T13:41:33.324Z,29.60
2023-02-11T13:42:48.742Z,31.20
2023-02-11T13:44:19.323Z,29.00
2023-02-11T13:45:39.889Z,26.73
2023-02-11T13:47:00.208Z,26.42
2023-02-11T13:48:08.286Z,27.30
2023-02-11T13:49:22.638Z,24.77
2023-02-11T13:50:27.230Z,28.80
2023-02-11T13:51:40.759Z,27.50
2023-02-11T13:52:47.398Z,25.35
2023-02-11T13:53:57.102Z,26.45
2023-02-11T13:55:15.529Z,28.33
2023-02-11T13:56:30.778Z,24.37
2023-02-11T13:57:36.281Z,25.43
2023-02-11T13:58:50.827Z,26.58
2023-02-11T14:00:00.763Z,26.23
2023-02-11T14:01:04.586Z,25.50
2023-02-11T14:04:51.036Z,27.45
2023-02-11T14:06:28.463Z,26.20
2023-02-11T14:07:53.249Z,34.58
2023-02-11T14:12:34.597Z,29.67
2023-02-11T14:13:47.327Z,28.38
2023-02-11T14:15:03.742Z,27.50
2023-02-11T14:16:17.104Z,28.23
2023-02-11T14:17:32.771Z,25.10
2023-02-11T14:18:39.673Z,27.30
2023-02-11T14:19:49.945Z,25.50
2023-02-11T14:21:13.593Z,25.30
2023-02-11T14:22:23.825Z,26.98
2023-02-11T14:23:28.700Z,26.30
2023-02-11T14:26:40.628Z,25.27
2023-02-11T14:27:58.027Z,26.08
2023-02-11T14:29:22.899Z,27.90
2023-02-11T14:30:35.341Z,29.12
2023-02-11T14:32:30.302Z,29.48
2023-02-11T14:33:41.309Z,27.58
2023-02-11T14:34:52.890Z,27.45
2023-02-11T14:36:26.631Z,26.55
2023-02-11T14:38:07.713Z,26.93
2023-02-11T14:41:27.913Z,25.58
2023-02-11T14:42:31.701Z,25.98
2023-02-11T14:43:50.352Z,27.83
2023-02-11T14:44:57.628Z,30.77
2023-02-11T14:46:11.329Z,34.08
2023-02-11T14:51:41.685Z,27.15
2023-02-11T14:52:45.884Z,27.03
2023-02-11T14:53:53.709Z,27.13
2023-02-11T14:55:09.784Z,25.88
2023-02-11T14:56:24.928Z,25.50
2023-02-11T14:57:28.734Z,26.90
2023-02-11T14:58:34.678Z,27.08
2023-02-11T14:59:38.674Z,27.58
2023-02-11T15:01:30.288Z,28.55
2023-02-11T15:02:43.287Z,28.52
2023-02-11T15:03:50.725Z,55.83
2023-02-11T15:04:55.691Z,49.97
2023-02-11T15:06:12.533Z,47.27
2023-02-11T15:07:17.530Z,53.30
2023-02-11T15:08:22.299Z,38.65
2023-02-11T15:09:57.328Z,39.65
2023-02-11T15:11:04.290Z,35.53
2023-02-11T15:12:20.497Z,39.50
2023-02-11T15:13:31.583Z,24.75
2023-02-11T15:14:37.024Z,24.77
2023-02-11T15:15:42.382Z,24.60
2023-02-11T15:16:47.443Z,23.23
2023-02-11T15:17:51.534Z,25.47